sensor_id;sensor_type;location;lat;lon;timestamp;temperature;humidity
11599;DHT22;5855;48.840;9.188;2022-08-14T00:00:40;18.40;99.90
11599;DHT22;5855;48.840;9.188;2022-08-14T00:03:07;18.30;99.90
11599;DHT22;5855;48.840;9.188;2022-08-14T00:05:34;18.30;99.90
11599;DHT22;5855;48.840;9.188;2022-08-14T00:08:01;18.20;99.90
11599;DHT22;5855;48.840;9.188;2022-08-14T00:10:28;18.20;99.90
11599;DHT22;5855;48.840;9.188;2022-08-14T00:12:55;18.10;99.90
11599;DHT22;5855;48.840;9.188;2022-08-14T00:15:28;18.00;99.90
11599;DHT22;5855;48.840;9.188;2022-08-14T00:17:55;18.00;99.90
11599;DHT22;5855;48.840;9.188;2022-08-14T00:20:24;18.00;99.90
11599;DHT22;5855;48.840;9.188;2022-08-14T00:22:51;17.90;99.90
11599;DHT22;5855;48.840;9.188;2022-08-14T00:25:18;17.90;99.90
11599;DHT22;5855;48.840;9.188;2022-08-14T00:27:45;17.90;99.90
11599;DHT22;5855;48.840;9.188;2022-08-14T00:30:13;17.90;99.90
11599;DHT22;5855;48.840;9.188;2022-08-14T00:32:42;17.80;99.90
11599;DHT22;5855;48.840;9.188;2022-08-14T00:35:10;17.80;99.90
11599;DHT22;5855;48.840;9.188;2022-08-14T00:37:38;17.80;99.90
11599;DHT22;5855;48.840;9.188;2022-08-14T00:40:07;17.70;99.90
11599;DHT22;5855;48.840;9.188;2022-08-14T00:42:34;17.70;99.90
11599;DHT22;5855;48.840;9.188;2022-08-14T00:45:01;17.60;99.90
11599;DHT22;5855;48.840;9.188;2022-08-14T00:47:28;17.60;99.90
11599;DHT22;5855;48.840;9.188;2022-08-14T00:49:56;17.60;99.90
11599;DHT22;5855;48.840;9.188;2022-08-14T00:52:24;17.60;99.90
11599;DHT22;5855;48.840;9.188;2022-08-14T00:54:52;17.60;99.90
11599;DHT22;5855;48.840;9.188;2022-08-14T00:57:20;17.50;99.90
11599;DHT22;5855;48.840;9.188;2022-08-14T00:59:47;17.50;99.90
11599;DHT22;5855;48.840;9.188;2022-08-14T01:02:16;17.40;99.90
11599;DHT22;5855;48.840;9.188;2022-08-14T01:04:45;17.40;99.90
11599;DHT22;5855;48.840;9.188;2022-08-14T01:07:13;17.30;99.90
11599;DHT22;5855;48.840;9.188;2022-08-14T01:09:47;17.10;99.90
11599;DHT22;5855;48.840;9.188;2022-08-14T01:12:15;17.00;99.90
11599;DHT22;5855;48.840;9.188;2022-08-14T01:14:43;17.00;99.90
11599;DHT22;5855;48.840;9.188;2022-08-14T01:17:10;17.00;99.90
11599;DHT22;5855;48.840;9.188;2022-08-14T01:19:38;17.00;99.90
11599;DHT22;5855;48.840;9.188;2022-08-14T01:22:23;17.00;99.90
11599;DHT22;5855;48.840;9.188;2022-08-14T01:24:50;17.00;99.90
11599;DHT22;5855;48.840;9.188;2022-08-14T01:27:19;17.00;99.90
11599;DHT22;5855;48.840;9.188;2022-08-14T01:29:49;17.00;99.90
11599;DHT22;5855;48.840;9.188;2022-08-14T01:32:17;17.00;99.90
11599;DHT22;5855;48.840;9.188;2022-08-14T01:34:47;17.00;99.90
11599;DHT22;5855;48.840;9.188;2022-08-14T01:37:14;16.90;99.90
11599;DHT22;5855;48.840;9.188;2022-08-14T01:39:42;16.90;99.90
11599;DHT22;5855;48.840;9.188;2022-08-14T01:42:09;16.90;99.90
11599;DHT22;5855;48.840;9.188;2022-08-14T01:44:36;16.80;99.90
11599;DHT22;5855;48.840;9.188;2022-08-14T01:47:05;16.80;99.90
11599;DHT22;5855;48.840;9.188;2022-08-14T01:49:36;16.60;99.90
11599;DHT22;5855;48.840;9.188;2022-08-14T01:52:03;16.60;99.90
11599;DHT22;5855;48.840;9.188;2022-08-14T01:54:30;16.60;99.90
11599;DHT22;5855;48.840;9.188;2022-08-14T01:56:59;16.60;99.90
11599;DHT22;5855;48.840;9.188;2022-08-14T01:59:29;16.60;99.90
11599;DHT22;5855;48.840;9.188;2022-08-14T02:01:58;16.50;99.90
11599;DHT22;5855;48.840;9.188;2022-08-14T02:04:31;16.40;99.90
11599;DHT22;5855;48.840;9.188;2022-08-14T02:06:58;16.40;99.90
11599;DHT22;5855;48.840;9.188;2022-08-14T02:09:28;16.30;99.90
11599;DHT22;5855;48.840;9.188;2022-08-14T02:12:02;16.30;99.90
11599;DHT22;5855;48.840;9.188;2022-08-14T02:14:29;16.20;99.90
11599;DHT22;5855;48.840;9.188;2022-08-14T02:16:58;16.30;99.90
11599;DHT22;5855;48.840;9.188;2022-08-14T02:19:29;16.20;99.90
11599;DHT22;5855;48.840;9.188;2022-08-14T02:21:58;16.10;99.90
11599;DHT22;5855;48.840;9.188;2022-08-14T02:24:28;16.20;99.90
11599;DHT22;5855;48.840;9.188;2022-08-14T02:26:56;16.20;99.90
11599;DHT22;5855;48.840;9.188;2022-08-14T02:29:27;16.10;99.90
11599;DHT22;5855;48.840;9.188;2022-08-14T02:31:56;16.10;99.90
11599;DHT22;5855;48.840;9.188;2022-08-14T02:34:25;16.10;99.90
11599;DHT22;5855;48.840;9.188;2022-08-14T02:36:55;16.10;99.90
11599;DHT22;5855;48.840;9.188;2022-08-14T02:39:24;16.00;99.90
11599;DHT22;5855;48.840;9.188;2022-08-14T02:41:51;15.90;99.90
11599;DHT22;5855;48.840;9.188;2022-08-14T02:44:19;15.90;99.90
11599;DHT22;5855;48.840;9.188;2022-08-14T02:46:50;15.90;99.90
11599;DHT22;5855;48.840;9.188;2022-08-14T02:49:17;15.90;99.90
11599;DHT22;5855;48.840;9.188;2022-08-14T02:51:54;15.90;99.90
11599;DHT22;5855;48.840;9.188;2022-08-14T02:54:21;15.90;99.90
11599;DHT22;5855;48.840;9.188;2022-08-14T02:56:48;15.90;99.90
11599;DHT22;5855;48.840;9.188;2022-08-14T02:59:16;15.80;99.90
11599;DHT22;5855;48.840;9.188;2022-08-14T03:01:43;15.80;99.90
11599;DHT22;5855;48.840;9.188;2022-08-14T03:04:12;15.70;99.90
11599;DHT22;5855;48.840;9.188;2022-08-14T03:06:40;15.70;99.90
11599;DHT22;5855;48.840;9.188;2022-08-14T03:09:08;15.70;99.90
11599;DHT22;5855;48.840;9.188;2022-08-14T03:11:36;15.70;99.90
11599;DHT22;5855;48.840;9.188;2022-08-14T03:14:03;15.70;99.90
11599;DHT22;5855;48.840;9.188;2022-08-14T03:16:30;15.60;99.90
11599;DHT22;5855;48.840;9.188;2022-08-14T03:19:02;15.60;99.90
11599;DHT22;5855;48.840;9.188;2022-08-14T03:21:31;15.50;99.90
11599;DHT22;5855;48.840;9.188;2022-08-14T03:23:59;15.40;99.90
11599;DHT22;5855;48.840;9.188;2022-08-14T03:26:35;15.50;99.90
11599;DHT22;5855;48.840;9.188;2022-08-14T03:29:04;15.40;99.90
11599;DHT22;5855;48.840;9.188;2022-08-14T03:31:31;15.30;99.90
11599;DHT22;5855;48.840;9.188;2022-08-14T03:33:58;15.20;99.90
11599;DHT22;5855;48.840;9.188;2022-08-14T03:36:26;15.30;99.90
11599;DHT22;5855;48.840;9.188;2022-08-14T03:38:58;15.20;99.90
11599;DHT22;5855;48.840;9.188;2022-08-14T03:41:26;15.20;99.90
11599;DHT22;5855;48.840;9.188;2022-08-14T03:43:55;15.20;99.90
11599;DHT22;5855;48.840;9.188;2022-08-14T03:46:23;15.20;99.90
11599;DHT22;5855;48.840;9.188;2022-08-14T03:48:51;15.30;99.90
11599;DHT22;5855;48.840;9.188;2022-08-14T03:51:19;15.20;99.90
11599;DHT22;5855;48.840;9.188;2022-08-14T03:53:47;15.20;99.90
11599;DHT22;5855;48.840;9.188;2022-08-14T03:56:16;15.20;99.90
11599;DHT22;5855;48.840;9.188;2022-08-14T03:58:45;15.20;99.90
11599;DHT22;5855;48.840;9.188;2022-08-14T04:01:13;15.20;99.90
11599;DHT22;5855;48.840;9.188;2022-08-14T04:03:40;15.10;99.90
11599;DHT22;5855;48.840;9.188;2022-08-14T04:06:07;15.10;99.90
11599;DHT22;5855;48.840;9.188;2022-08-14T04:08:35;15.10;99.90
11599;DHT22;5855;48.840;9.188;2022-08-14T04:11:03;15.10;99.90
11599;DHT22;5855;48.840;9.188;2022-08-14T04:13:33;15.10;99.90
11599;DHT22;5855;48.840;9.188;2022-08-14T04:16:04;15.10;99.90
11599;DHT22;5855;48.840;9.188;2022-08-14T04:18:32;15.00;99.90
11599;DHT22;5855;48.840;9.188;2022-08-14T04:20:58;15.00;99.90
11599;DHT22;5855;48.840;9.188;2022-08-14T04:23:25;15.00;99.90
11599;DHT22;5855;48.840;9.188;2022-08-14T04:25:52;15.00;99.90
11599;DHT22;5855;48.840;9.188;2022-08-14T04:28:20;15.00;99.90
11599;DHT22;5855;48.840;9.188;2022-08-14T04:30:48;15.00;99.90
11599;DHT22;5855;48.840;9.188;2022-08-14T04:33:15;15.10;99.90
11599;DHT22;5855;48.840;9.188;2022-08-14T04:35:42;15.10;99.90
11599;DHT22;5855;48.840;9.188;2022-08-14T04:38:10;15.10;99.90
11599;DHT22;5855;48.840;9.188;2022-08-14T04:41:06;15.20;99.90
11599;DHT22;5855;48.840;9.188;2022-08-14T04:43:50;15.20;99.90
11599;DHT22;5855;48.840;9.188;2022-08-14T04:46:21;15.20;99.90
11599;DHT22;5855;48.840;9.188;2022-08-14T04:48:48;15.30;99.90
11599;DHT22;5855;48.840;9.188;2022-08-14T04:51:15;15.30;99.90
11599;DHT22;5855;48.840;9.188;2022-08-14T04:53:44;15.40;99.90
11599;DHT22;5855;48.840;9.188;2022-08-14T04:56:15;15.40;99.90
11599;DHT22;5855;48.840;9.188;2022-08-14T04:58:42;15.50;99.90
11599;DHT22;5855;48.840;9.188;2022-08-14T05:01:11;15.60;99.90
11599;DHT22;5855;48.840;9.188;2022-08-14T05:03:41;15.60;99.90
11599;DHT22;5855;48.840;9.188;2022-08-14T05:06:10;15.70;99.90
11599;DHT22;5855;48.840;9.188;2022-08-14T05:08:38;15.80;99.90
11599;DHT22;5855;48.840;9.188;2022-08-14T05:11:06;15.90;99.90
11599;DHT22;5855;48.840;9.188;2022-08-14T05:13:34;15.90;99.90
11599;DHT22;5855;48.840;9.188;2022-08-14T05:16:03;16.00;99.90
11599;DHT22;5855;48.840;9.188;2022-08-14T05:18:32;16.10;99.90
11599;DHT22;5855;48.840;9.188;2022-08-14T05:21:02;16.20;99.90
11599;DHT22;5855;48.840;9.188;2022-08-14T05:23:31;16.30;99.90
11599;DHT22;5855;48.840;9.188;2022-08-14T05:25:59;16.40;99.90
11599;DHT22;5855;48.840;9.188;2022-08-14T05:28:30;16.50;99.90
11599;DHT22;5855;48.840;9.188;2022-08-14T05:31:00;16.60;99.90
11599;DHT22;5855;48.840;9.188;2022-08-14T05:33:30;16.70;99.90
11599;DHT22;5855;48.840;9.188;2022-08-14T05:36:01;16.80;99.90
11599;DHT22;5855;48.840;9.188;2022-08-14T05:38:30;16.90;99.90
11599;DHT22;5855;48.840;9.188;2022-08-14T05:40:58;17.00;99.90
11599;DHT22;5855;48.840;9.188;2022-08-14T05:43:26;17.10;99.90
11599;DHT22;5855;48.840;9.188;2022-08-14T05:45:53;17.20;99.90
11599;DHT22;5855;48.840;9.188;2022-08-14T05:48:20;17.30;99.90
11599;DHT22;5855;48.840;9.188;2022-08-14T05:50:47;17.50;99.90
11599;DHT22;5855;48.840;9.188;2022-08-14T05:53:15;17.60;99.90
11599;DHT22;5855;48.840;9.188;2022-08-14T05:55:42;17.70;99.90
11599;DHT22;5855;48.840;9.188;2022-08-14T05:58:09;17.90;99.90
11599;DHT22;5855;48.840;9.188;2022-08-14T06:00:38;18.00;99.90
11599;DHT22;5855;48.840;9.188;2022-08-14T06:03:07;18.10;99.90
11599;DHT22;5855;48.840;9.188;2022-08-14T06:05:34;18.30;99.90
11599;DHT22;5855;48.840;9.188;2022-08-14T06:08:01;18.40;99.90
11599;DHT22;5855;48.840;9.188;2022-08-14T06:10:30;18.50;99.90
11599;DHT22;5855;48.840;9.188;2022-08-14T06:12:57;18.50;99.90
11599;DHT22;5855;48.840;9.188;2022-08-14T06:15:26;18.60;99.90
11599;DHT22;5855;48.840;9.188;2022-08-14T06:17:54;18.70;99.90
11599;DHT22;5855;48.840;9.188;2022-08-14T06:20:21;18.80;99.90
11599;DHT22;5855;48.840;9.188;2022-08-14T06:22:49;18.90;99.90
11599;DHT22;5855;48.840;9.188;2022-08-14T06:25:16;19.00;99.90
11599;DHT22;5855;48.840;9.188;2022-08-14T06:27:45;19.10;99.90
11599;DHT22;5855;48.840;9.188;2022-08-14T06:30:15;19.30;99.90
11599;DHT22;5855;48.840;9.188;2022-08-14T06:32:42;19.30;99.90
11599;DHT22;5855;48.840;9.188;2022-08-14T06:35:10;19.40;99.90
11599;DHT22;5855;48.840;9.188;2022-08-14T06:37:41;19.50;99.90
11599;DHT22;5855;48.840;9.188;2022-08-14T06:40:09;19.50;99.90
11599;DHT22;5855;48.840;9.188;2022-08-14T06:42:37;19.70;99.90
11599;DHT22;5855;48.840;9.188;2022-08-14T06:45:06;19.80;99.90
11599;DHT22;5855;48.840;9.188;2022-08-14T06:47:33;19.90;99.90
11599;DHT22;5855;48.840;9.188;2022-08-14T06:50:01;20.00;99.90
11599;DHT22;5855;48.840;9.188;2022-08-14T06:52:28;20.20;99.90
11599;DHT22;5855;48.840;9.188;2022-08-14T06:54:55;20.40;99.90
11599;DHT22;5855;48.840;9.188;2022-08-14T06:57:22;20.50;99.90
11599;DHT22;5855;48.840;9.188;2022-08-14T06:59:49;20.70;99.90
11599;DHT22;5855;48.840;9.188;2022-08-14T07:02:17;20.80;99.90
11599;DHT22;5855;48.840;9.188;2022-08-14T07:05:02;21.00;99.90
11599;DHT22;5855;48.840;9.188;2022-08-14T07:07:57;21.20;99.90
11599;DHT22;5855;48.840;9.188;2022-08-14T07:10:25;21.40;99.90
11599;DHT22;5855;48.840;9.188;2022-08-14T07:12:52;21.60;99.90
11599;DHT22;5855;48.840;9.188;2022-08-14T07:15:19;21.80;99.90
11599;DHT22;5855;48.840;9.188;2022-08-14T07:17:49;22.00;99.50
11599;DHT22;5855;48.840;9.188;2022-08-14T07:20:16;22.10;99.10
11599;DHT22;5855;48.840;9.188;2022-08-14T07:22:45;22.30;98.80
11599;DHT22;5855;48.840;9.188;2022-08-14T07:25:12;22.50;98.30
11599;DHT22;5855;48.840;9.188;2022-08-14T07:27:39;22.60;97.80
11599;DHT22;5855;48.840;9.188;2022-08-14T07:30:07;22.80;97.20
11599;DHT22;5855;48.840;9.188;2022-08-14T07:32:34;23.00;96.30
11599;DHT22;5855;48.840;9.188;2022-08-14T07:35:03;23.10;95.10
11599;DHT22;5855;48.840;9.188;2022-08-14T07:37:29;23.30;95.00
11599;DHT22;5855;48.840;9.188;2022-08-14T07:39:56;23.30;94.00
11599;DHT22;5855;48.840;9.188;2022-08-14T07:42:23;23.10;93.80
11599;DHT22;5855;48.840;9.188;2022-08-14T07:44:51;23.20;93.60
11599;DHT22;5855;48.840;9.188;2022-08-14T07:47:18;23.40;93.60
11599;DHT22;5855;48.840;9.188;2022-08-14T07:50:04;23.60;93.20
11599;DHT22;5855;48.840;9.188;2022-08-14T07:52:34;23.70;93.10
11599;DHT22;5855;48.840;9.188;2022-08-14T07:55:04;24.00;92.30
11599;DHT22;5855;48.840;9.188;2022-08-14T07:57:32;24.20;91.90
11599;DHT22;5855;48.840;9.188;2022-08-14T07:59:59;24.50;91.70
11599;DHT22;5855;48.840;9.188;2022-08-14T08:02:29;24.80;90.90
11599;DHT22;5855;48.840;9.188;2022-08-14T08:04:57;24.90;90.60
11599;DHT22;5855;48.840;9.188;2022-08-14T08:07:26;25.00;90.50
11599;DHT22;5855;48.840;9.188;2022-08-14T08:09:58;25.20;90.00
11599;DHT22;5855;48.840;9.188;2022-08-14T08:12:25;25.30;89.50
11599;DHT22;5855;48.840;9.188;2022-08-14T08:14:52;25.50;88.50
11599;DHT22;5855;48.840;9.188;2022-08-14T08:17:19;25.80;87.80
11599;DHT22;5855;48.840;9.188;2022-08-14T08:19:48;26.10;85.60
11599;DHT22;5855;48.840;9.188;2022-08-14T08:22:15;26.40;83.60
11599;DHT22;5855;48.840;9.188;2022-08-14T08:24:42;26.70;82.20
11599;DHT22;5855;48.840;9.188;2022-08-14T08:27:17;27.00;80.70
11599;DHT22;5855;48.840;9.188;2022-08-14T08:29:45;27.30;79.20
11599;DHT22;5855;48.840;9.188;2022-08-14T08:32:12;27.50;78.40
11599;DHT22;5855;48.840;9.188;2022-08-14T08:34:43;27.80;73.70
11599;DHT22;5855;48.840;9.188;2022-08-14T08:37:11;28.00;73.90
11599;DHT22;5855;48.840;9.188;2022-08-14T08:39:44;28.10;73.10
11599;DHT22;5855;48.840;9.188;2022-08-14T08:42:11;28.40;71.30
11599;DHT22;5855;48.840;9.188;2022-08-14T08:44:39;28.50;70.30
11599;DHT22;5855;48.840;9.188;2022-08-14T08:47:06;28.70;67.70
11599;DHT22;5855;48.840;9.188;2022-08-14T08:49:38;28.90;67.30
11599;DHT22;5855;48.840;9.188;2022-08-14T08:52:08;29.20;64.80
11599;DHT22;5855;48.840;9.188;2022-08-14T08:54:35;29.20;62.20
11599;DHT22;5855;48.840;9.188;2022-08-14T08:57:09;29.30;61.10
11599;DHT22;5855;48.840;9.188;2022-08-14T08:59:36;29.50;60.90
11599;DHT22;5855;48.840;9.188;2022-08-14T09:02:06;29.70;59.80
11599;DHT22;5855;48.840;9.188;2022-08-14T09:04:35;29.90;58.30
11599;DHT22;5855;48.840;9.188;2022-08-14T09:07:03;30.20;57.90
11599;DHT22;5855;48.840;9.188;2022-08-14T09:09:31;30.50;56.30
11599;DHT22;5855;48.840;9.188;2022-08-14T09:12:00;30.60;55.50
11599;DHT22;5855;48.840;9.188;2022-08-14T09:14:29;30.70;55.00
11599;DHT22;5855;48.840;9.188;2022-08-14T09:16:58;30.70;53.90
11599;DHT22;5855;48.840;9.188;2022-08-14T09:19:26;30.80;53.80
11599;DHT22;5855;48.840;9.188;2022-08-14T09:21:53;31.00;53.60
11599;DHT22;5855;48.840;9.188;2022-08-14T09:24:21;31.20;52.80
11599;DHT22;5855;48.840;9.188;2022-08-14T09:26:47;31.40;51.70
11599;DHT22;5855;48.840;9.188;2022-08-14T09:29:15;31.50;51.30
11599;DHT22;5855;48.840;9.188;2022-08-14T09:31:43;31.80;50.40
11599;DHT22;5855;48.840;9.188;2022-08-14T09:34:20;31.90;50.00
11599;DHT22;5855;48.840;9.188;2022-08-14T09:37:01;31.80;48.80
11599;DHT22;5855;48.840;9.188;2022-08-14T09:39:43;32.00;49.00
11599;DHT22;5855;48.840;9.188;2022-08-14T09:42:25;32.20;48.00
11599;DHT22;5855;48.840;9.188;2022-08-14T09:45:04;32.10;47.80
11599;DHT22;5855;48.840;9.188;2022-08-14T09:47:43;31.70;48.60
11599;DHT22;5855;48.840;9.188;2022-08-14T09:50:22;31.40;45.90
11599;DHT22;5855;48.840;9.188;2022-08-14T09:52:53;31.00;46.20
11599;DHT22;5855;48.840;9.188;2022-08-14T09:55:21;31.30;45.80
11599;DHT22;5855;48.840;9.188;2022-08-14T09:57:49;31.50;46.30
11599;DHT22;5855;48.840;9.188;2022-08-14T10:00:18;31.90;45.80
11599;DHT22;5855;48.840;9.188;2022-08-14T10:02:52;31.70;45.60
11599;DHT22;5855;48.840;9.188;2022-08-14T10:05:37;32.10;44.40
11599;DHT22;5855;48.840;9.188;2022-08-14T10:08:16;32.20;44.20
11599;DHT22;5855;48.840;9.188;2022-08-14T10:10:44;32.60;43.50
11599;DHT22;5855;48.840;9.188;2022-08-14T10:13:21;32.80;42.50
11599;DHT22;5855;48.840;9.188;2022-08-14T10:15:48;32.80;41.50
11599;DHT22;5855;48.840;9.188;2022-08-14T10:18:16;33.00;42.60
11599;DHT22;5855;48.840;9.188;2022-08-14T10:20:52;32.90;41.00
11599;DHT22;5855;48.840;9.188;2022-08-14T10:23:23;33.30;40.70
11599;DHT22;5855;48.840;9.188;2022-08-14T10:25:56;33.40;40.10
11599;DHT22;5855;48.840;9.188;2022-08-14T10:28:23;33.80;39.60
11599;DHT22;5855;48.840;9.188;2022-08-14T10:30:51;34.00;39.00
11599;DHT22;5855;48.840;9.188;2022-08-14T10:33:26;34.20;38.00
11599;DHT22;5855;48.840;9.188;2022-08-14T10:35:54;34.30;37.50
11599;DHT22;5855;48.840;9.188;2022-08-14T10:38:33;34.50;37.00
11599;DHT22;5855;48.840;9.188;2022-08-14T10:41:10;34.40;35.80
11599;DHT22;5855;48.840;9.188;2022-08-14T10:43:38;34.70;35.90
11599;DHT22;5855;48.840;9.188;2022-08-14T10:46:12;34.90;34.90
11599;DHT22;5855;48.840;9.188;2022-08-14T10:48:39;34.80;34.90
11599;DHT22;5855;48.840;9.188;2022-08-14T10:51:07;35.10;34.10
11599;DHT22;5855;48.840;9.188;2022-08-14T10:53:35;35.30;33.90
11599;DHT22;5855;48.840;9.188;2022-08-14T10:56:09;35.60;33.70
11599;DHT22;5855;48.840;9.188;2022-08-14T10:58:38;35.90;33.10
11599;DHT22;5855;48.840;9.188;2022-08-14T11:01:05;36.20;32.70
11599;DHT22;5855;48.840;9.188;2022-08-14T11:03:40;36.70;31.80
11599;DHT22;5855;48.840;9.188;2022-08-14T11:06:12;37.20;31.20
11599;DHT22;5855;48.840;9.188;2022-08-14T11:08:46;37.60;30.00
11599;DHT22;5855;48.840;9.188;2022-08-14T11:11:15;37.70;29.30
11599;DHT22;5855;48.840;9.188;2022-08-14T11:13:43;37.60;28.90
11599;DHT22;5855;48.840;9.188;2022-08-14T11:16:12;37.70;28.20
11599;DHT22;5855;48.840;9.188;2022-08-14T11:18:45;37.70;28.50
11599;DHT22;5855;48.840;9.188;2022-08-14T11:21:14;38.20;28.20
11599;DHT22;5855;48.840;9.188;2022-08-14T11:23:45;37.70;28.00
11599;DHT22;5855;48.840;9.188;2022-08-14T11:26:15;37.60;27.90
11599;DHT22;5855;48.840;9.188;2022-08-14T11:28:45;38.30;27.40
11599;DHT22;5855;48.840;9.188;2022-08-14T11:31:13;38.80;26.90
11599;DHT22;5855;48.840;9.188;2022-08-14T11:33:41;38.30;26.80
11599;DHT22;5855;48.840;9.188;2022-08-14T11:36:10;38.40;26.30
11599;DHT22;5855;48.840;9.188;2022-08-14T11:38:39;37.80;26.40
11599;DHT22;5855;48.840;9.188;2022-08-14T11:41:08;38.20;26.50
11599;DHT22;5855;48.840;9.188;2022-08-14T11:43:39;38.60;26.20
11599;DHT22;5855;48.840;9.188;2022-08-14T11:46:06;38.60;26.20
11599;DHT22;5855;48.840;9.188;2022-08-14T11:48:44;38.70;25.80
11599;DHT22;5855;48.840;9.188;2022-08-14T11:51:13;39.00;25.50
11599;DHT22;5855;48.840;9.188;2022-08-14T11:53:49;38.70;25.30
11599;DHT22;5855;48.840;9.188;2022-08-14T11:56:18;38.90;25.70
11599;DHT22;5855;48.840;9.188;2022-08-14T11:58:50;39.60;25.70
11599;DHT22;5855;48.840;9.188;2022-08-14T12:01:23;40.20;24.70
11599;DHT22;5855;48.840;9.188;2022-08-14T12:03:53;41.10;23.40
11599;DHT22;5855;48.840;9.188;2022-08-14T12:06:23;41.20;22.60
11599;DHT22;5855;48.840;9.188;2022-08-14T12:08:50;41.20;22.80
11599;DHT22;5855;48.840;9.188;2022-08-14T12:11:19;42.00;22.00
11599;DHT22;5855;48.840;9.188;2022-08-14T12:13:47;41.80;21.80
11599;DHT22;5855;48.840;9.188;2022-08-14T12:16:14;42.30;21.10
11599;DHT22;5855;48.840;9.188;2022-08-14T12:18:43;43.10;20.80
11599;DHT22;5855;48.840;9.188;2022-08-14T12:21:13;43.90;19.90
11599;DHT22;5855;48.840;9.188;2022-08-14T12:23:41;43.40;19.10
11599;DHT22;5855;48.840;9.188;2022-08-14T12:26:10;42.90;19.60
11599;DHT22;5855;48.840;9.188;2022-08-14T12:28:40;43.80;19.50
11599;DHT22;5855;48.840;9.188;2022-08-14T12:31:14;44.30;18.60
11599;DHT22;5855;48.840;9.188;2022-08-14T12:33:55;44.90;18.00
11599;DHT22;5855;48.840;9.188;2022-08-14T12:36:22;45.80;17.40
11599;DHT22;5855;48.840;9.188;2022-08-14T12:38:49;46.60;16.50
11599;DHT22;5855;48.840;9.188;2022-08-14T12:41:17;47.10;16.00
11599;DHT22;5855;48.840;9.188;2022-08-14T12:43:47;47.60;15.00
11599;DHT22;5855;48.840;9.188;2022-08-14T12:46:26;48.20;14.30
11599;DHT22;5855;48.840;9.188;2022-08-14T12:48:54;48.30;13.60
11599;DHT22;5855;48.840;9.188;2022-08-14T12:51:23;46.60;13.60
11599;DHT22;5855;48.840;9.188;2022-08-14T12:53:50;45.10;14.30
11599;DHT22;5855;48.840;9.188;2022-08-14T12:56:18;44.20;15.10
11599;DHT22;5855;48.840;9.188;2022-08-14T12:58:49;41.60;16.20
11599;DHT22;5855;48.840;9.188;2022-08-14T13:01:21;42.40;16.30
11599;DHT22;5855;48.840;9.188;2022-08-14T13:03:49;43.70;15.70
11599;DHT22;5855;48.840;9.188;2022-08-14T13:06:17;45.80;14.90
11599;DHT22;5855;48.840;9.188;2022-08-14T13:08:45;47.30;13.90
11599;DHT22;5855;48.840;9.188;2022-08-14T13:11:12;48.50;13.00
11599;DHT22;5855;48.840;9.188;2022-08-14T13:13:41;49.80;12.10
11599;DHT22;5855;48.840;9.188;2022-08-14T13:16:10;50.30;11.40
11599;DHT22;5855;48.840;9.188;2022-08-14T13:18:41;50.40;10.40
11599;DHT22;5855;48.840;9.188;2022-08-14T13:21:11;48.80;10.30
11599;DHT22;5855;48.840;9.188;2022-08-14T13:23:40;48.70;9.90
11599;DHT22;5855;48.840;9.188;2022-08-14T13:26:08;47.10;10.50
11599;DHT22;5855;48.840;9.188;2022-08-14T13:28:38;45.30;11.10
11599;DHT22;5855;48.840;9.188;2022-08-14T13:31:08;42.60;12.20
11599;DHT22;5855;48.840;9.188;2022-08-14T13:33:36;42.70;12.80
11599;DHT22;5855;48.840;9.188;2022-08-14T13:36:04;44.50;12.80
11599;DHT22;5855;48.840;9.188;2022-08-14T13:38:31;44.70;12.20
11599;DHT22;5855;48.840;9.188;2022-08-14T13:40:58;44.50;12.40
11599;DHT22;5855;48.840;9.188;2022-08-14T13:43:25;44.10;12.90
11599;DHT22;5855;48.840;9.188;2022-08-14T13:45:52;43.60;13.00
11599;DHT22;5855;48.840;9.188;2022-08-14T13:48:21;44.20;12.40
11599;DHT22;5855;48.840;9.188;2022-08-14T13:50:54;45.30;12.70
11599;DHT22;5855;48.840;9.188;2022-08-14T13:53:22;43.40;12.50
11599;DHT22;5855;48.840;9.188;2022-08-14T13:55:50;43.30;12.90
11599;DHT22;5855;48.840;9.188;2022-08-14T13:58:18;43.10;13.20
11599;DHT22;5855;48.840;9.188;2022-08-14T14:00:46;44.70;12.10
11599;DHT22;5855;48.840;9.188;2022-08-14T14:03:17;44.20;12.50
11599;DHT22;5855;48.840;9.188;2022-08-14T14:05:44;42.10;12.90
11599;DHT22;5855;48.840;9.188;2022-08-14T14:08:13;43.10;13.40
11599;DHT22;5855;48.840;9.188;2022-08-14T14:10:40;44.80;12.40
11599;DHT22;5855;48.840;9.188;2022-08-14T14:13:09;46.70;11.90
11599;DHT22;5855;48.840;9.188;2022-08-14T14:15:36;48.40;10.80
11599;DHT22;5855;48.840;9.188;2022-08-14T14:18:03;48.30;11.00
11599;DHT22;5855;48.840;9.188;2022-08-14T14:20:31;50.50;10.40
11599;DHT22;5855;48.840;9.188;2022-08-14T14:22:58;51.50;9.50
11599;DHT22;5855;48.840;9.188;2022-08-14T14:25:27;49.50;9.20
11599;DHT22;5855;48.840;9.188;2022-08-14T14:27:56;48.90;9.80
11599;DHT22;5855;48.840;9.188;2022-08-14T14:30:25;50.00;9.50
11599;DHT22;5855;48.840;9.188;2022-08-14T14:32:54;51.10;9.10
11599;DHT22;5855;48.840;9.188;2022-08-14T14:35:23;52.30;8.30
11599;DHT22;5855;48.840;9.188;2022-08-14T14:37:54;52.00;8.00
11599;DHT22;5855;48.840;9.188;2022-08-14T14:40:21;50.30;8.20
11599;DHT22;5855;48.840;9.188;2022-08-14T14:42:51;50.30;8.30
11599;DHT22;5855;48.840;9.188;2022-08-14T14:45:19;49.00;8.60
11599;DHT22;5855;48.840;9.188;2022-08-14T14:47:49;47.30;9.30
11599;DHT22;5855;48.840;9.188;2022-08-14T14:50:17;47.20;9.60
11599;DHT22;5855;48.840;9.188;2022-08-14T14:52:45;47.50;10.00
11599;DHT22;5855;48.840;9.188;2022-08-14T14:55:12;47.70;9.30
11599;DHT22;5855;48.840;9.188;2022-08-14T14:57:41;46.10;9.70
11599;DHT22;5855;48.840;9.188;2022-08-14T15:00:11;46.60;9.70
11599;DHT22;5855;48.840;9.188;2022-08-14T15:02:40;47.00;9.80
11599;DHT22;5855;48.840;9.188;2022-08-14T15:05:08;47.50;9.30
11599;DHT22;5855;48.840;9.188;2022-08-14T15:07:36;48.30;9.10
11599;DHT22;5855;48.840;9.188;2022-08-14T15:10:04;48.90;8.70
11599;DHT22;5855;48.840;9.188;2022-08-14T15:12:31;48.70;8.20
11599;DHT22;5855;48.840;9.188;2022-08-14T15:14:58;48.60;8.30
11599;DHT22;5855;48.840;9.188;2022-08-14T15:17:27;48.50;8.20
11599;DHT22;5855;48.840;9.188;2022-08-14T15:19:58;48.20;8.40
11599;DHT22;5855;48.840;9.188;2022-08-14T15:22:25;48.50;8.20
11599;DHT22;5855;48.840;9.188;2022-08-14T15:24:53;48.50;7.90
11599;DHT22;5855;48.840;9.188;2022-08-14T15:27:20;47.70;8.20
11599;DHT22;5855;48.840;9.188;2022-08-14T15:29:48;46.70;8.50
11599;DHT22;5855;48.840;9.188;2022-08-14T15:32:15;45.60;9.20
11599;DHT22;5855;48.840;9.188;2022-08-14T15:34:43;44.90;9.70
11599;DHT22;5855;48.840;9.188;2022-08-14T15:37:10;44.10;9.80
11599;DHT22;5855;48.840;9.188;2022-08-14T15:39:37;43.40;10.40
11599;DHT22;5855;48.840;9.188;2022-08-14T15:42:05;42.40;11.10
11599;DHT22;5855;48.840;9.188;2022-08-14T15:44:34;42.20;11.80
11599;DHT22;5855;48.840;9.188;2022-08-14T15:47:03;42.20;11.50
11599;DHT22;5855;48.840;9.188;2022-08-14T15:49:32;42.10;11.60
11599;DHT22;5855;48.840;9.188;2022-08-14T15:52:00;41.50;11.40
11599;DHT22;5855;48.840;9.188;2022-08-14T15:54:28;41.70;11.60
11599;DHT22;5855;48.840;9.188;2022-08-14T15:56:56;41.90;11.40
11599;DHT22;5855;48.840;9.188;2022-08-14T15:59:24;42.10;11.50